Terminal Aerodrome Forecast
Issued by NWS Riverton, WY

Home | Current Version | Previous Version | Text Only | Print | Product List | Glossary On
Versions: 1 2 3 4 5 6 7 8 9 10 11 12
929
FTUS45 KRIW 042337
TAFRIW
TAF
KRIW 042337Z 0500/0524 27013G20KT P6SM BKN100 WS020/26035KT
     FM050900 30022G30KT P6SM BKN070
     FM051400 01010KT P6SM VCSH BKN050
     FM051700 30022G30KT P6SM SCT050=

USA.gov is the U.S. government's official web portal to all federal, state and local government web resources and services.